Time;durP1;ratioP1;P1;durP2;ratioP2;P2;SDS_P1;SDS_P2;PMS_P1;PMS_P2;Temp;Humidity;BMP_temperature;BMP_pressure;BME280_temperature;BME280_humidity;BME280_pressure;Samples;Min_cycle;Max_cycle;Signal;HPM_P1;HPM_P2
2022/06/20 00:00:50;;;;;;;;;;;14.70;99.90;;;;;;5100147;28;19978;-73
2022/06/20 00:03:18;;;;;;;;;;;14.70;99.90;;;;;;5110704;27;20279;-73
2022/06/20 00:05:43;;;;;;;;;;;14.70;99.90;;;;;;5106980;28;20345;-74
2022/06/20 00:08:10;;;;;;;;;;;14.60;99.90;;;;;;5108560;28;19970;-73
2022/06/20 00:10:37;;;;;;;;;;;14.60;99.90;;;;;;5108053;28;20022;-74
2022/06/20 00:13:03;;;;;;;;;;;14.60;99.90;;;;;;5110286;28;19936;-73
2022/06/20 00:15:35;;;;;;;;;;;14.50;99.90;;;;;;5089574;28;19946;-73
2022/06/20 00:18:03;;;;;;;;;;;14.50;99.90;;;;;;5108914;28;20396;-73
2022/06/20 00:20:28;;;;;;;;;;;14.50;99.90;;;;;;5104719;28;19923;-73
2022/06/20 00:22:54;;;;;;;;;;;14.50;99.90;;;;;;5046953;28;19936;-73
2022/06/20 00:25:20;;;;;;;;;;;14.50;99.90;;;;;;5103523;28;19932;-73
2022/06/20 00:27:46;;;;;;;;;;;14.40;99.90;;;;;;5109826;28;19971;-73
2022/06/20 00:30:12;;;;;;;;;;;14.50;99.90;;;;;;5088632;28;19928;-73
2022/06/20 00:32:38;;;;;;;;;;;14.50;99.90;;;;;;5107784;28;19969;-73
2022/06/20 00:35:03;;;;;;;;;;;14.50;99.90;;;;;;5104360;27;19924;-73
2022/06/20 00:37:29;;;;;;;;;;;14.40;99.90;;;;;;5107632;28;19927;-74
2022/06/20 00:39:55;;;;;;;;;;;14.40;99.90;;;;;;5081605;28;19929;-73
2022/06/20 00:42:20;;;;;;;;;;;14.40;99.90;;;;;;5077030;28;20014;-73
2022/06/20 00:44:48;;;;;;;;;;;14.40;99.90;;;;;;5103878;28;19924;-73
2022/06/20 00:47:22;;;;;;;;;;;14.40;99.90;;;;;;5106799;28;20393;-73
2022/06/20 00:50:11;;;;;;;;;;;14.40;99.90;;;;;;5089082;28;19923;-73
2022/06/20 00:53:06;;;;;;;;;;;14.40;99.90;;;;;;5100399;28;19924;-73
2022/06/20 00:55:34;;;;;;;;;;;14.40;99.90;;;;;;5087475;28;20033;-73
2022/06/20 00:58:06;;;;;;;;;;;14.40;99.90;;;;;;5056444;28;19928;-73
2022/06/20 01:00:35;;;;;;;;;;;14.40;99.90;;;;;;5099193;28;20902;-73
2022/06/20 01:03:07;;;;;;;;;;;14.40;99.90;;;;;;5106154;28;19930;-73
2022/06/20 01:05:39;;;;;;;;;;;14.40;99.90;;;;;;5102704;28;19931;-73
2022/06/20 01:08:08;;;;;;;;;;;14.40;99.90;;;;;;5104969;28;19927;-73
2022/06/20 01:10:42;;;;;;;;;;;14.30;99.90;;;;;;5023123;28;19929;-74
2022/06/20 01:13:11;;;;;;;;;;;14.30;99.90;;;;;;4990736;28;19925;-73
2022/06/20 01:15:38;;;;;;;;;;;14.20;99.90;;;;;;5007385;28;20334;-73
2022/06/20 01:18:05;;;;;;;;;;;14.20;99.90;;;;;;5008370;28;19931;-73
2022/06/20 01:20:33;;;;;;;;;;;14.10;99.90;;;;;;5009953;28;20257;-73
2022/06/20 01:23:02;;;;;;;;;;;14.00;99.90;;;;;;5007446;28;20437;-74
2022/06/20 01:25:36;;;;;;;;;;;14.00;99.90;;;;;;5008071;28;19925;-73
2022/06/20 01:28:02;;;;;;;;;;;13.90;99.90;;;;;;4990897;28;19926;-73
2022/06/20 01:30:29;;;;;;;;;;;13.80;99.90;;;;;;5020916;28;19970;-73
2022/06/20 01:32:56;;;;;;;;;;;13.80;99.90;;;;;;5008565;28;19925;-73
2022/06/20 01:38:08;;;;;;;;;;;13.70;99.90;;;;;;5008759;28;19930;-73
2022/06/20 01:40:33;;;;;;;;;;;13.70;99.90;;;;;;5060468;28;19923;-74
2022/06/20 01:42:59;;;;;;;;;;;13.70;99.90;;;;;;5021151;28;19926;-74
2022/06/20 01:48:12;;;;;;;;;;;13.60;99.90;;;;;;5039892;28;19999;-74
2022/06/20 01:50:39;;;;;;;;;;;13.50;99.90;;;;;;5109402;28;20002;-74
2022/06/20 01:53:06;;;;;;;;;;;13.50;99.90;;;;;;5074040;28;19929;-74
2022/06/20 01:55:32;;;;;;;;;;;13.50;99.90;;;;;;5042152;28;20266;-74
2022/06/20 01:58:04;;;;;;;;;;;13.50;99.90;;;;;;5092356;28;19924;-74
2022/06/20 02:00:30;;;;;;;;;;;13.40;99.90;;;;;;5025498;28;19990;-74
2022/06/20 02:02:58;;;;;;;;;;;13.40;99.90;;;;;;5065873;28;19977;-73
2022/06/20 02:05:25;;;;;;;;;;;13.40;99.90;;;;;;5041014;28;19923;-74
2022/06/20 02:07:51;;;;;;;;;;;13.40;99.90;;;;;;5104407;28;20411;-74
2022/06/20 02:10:24;;;;;;;;;;;13.30;99.90;;;;;;5022335;28;19933;-74
2022/06/20 02:12:50;;;;;;;;;;;13.30;99.90;;;;;;5028053;28;20000;-74
2022/06/20 02:15:20;;;;;;;;;;;13.30;99.90;;;;;;5007491;28;20318;-73
2022/06/20 02:17:47;;;;;;;;;;;13.30;99.90;;;;;;5048217;28;19988;-73
2022/06/20 02:20:16;;;;;;;;;;;13.20;99.90;;;;;;5008831;28;19925;-73
2022/06/20 02:22:42;;;;;;;;;;;13.20;99.90;;;;;;5008942;28;20847;-74
2022/06/20 02:25:11;;;;;;;;;;;13.20;99.90;;;;;;5007777;28;19925;-74
2022/06/20 02:27:41;;;;;;;;;;;13.10;99.90;;;;;;5031332;28;20271;-74
2022/06/20 02:30:08;;;;;;;;;;;13.00;99.90;;;;;;5048500;28;20299;-74
2022/06/20 02:32:38;;;;;;;;;;;13.00;99.90;;;;;;5089320;28;20381;-73
2022/06/20 02:35:06;;;;;;;;;;;13.00;99.90;;;;;;5026971;28;19924;-74
2022/06/20 02:37:34;;;;;;;;;;;13.00;99.90;;;;;;5109460;28;20105;-73
2022/06/20 02:40:03;;;;;;;;;;;13.00;99.90;;;;;;5108607;28;19923;-73
2022/06/20 02:42:37;;;;;;;;;;;13.00;99.90;;;;;;5038520;28;20303;-73
2022/06/20 02:45:05;;;;;;;;;;;13.00;99.90;;;;;;5109783;28;20024;-73
2022/06/20 02:47:31;;;;;;;;;;;13.10;99.90;;;;;;5107772;28;19931;-73
2022/06/20 02:49:58;;;;;;;;;;;13.10;99.90;;;;;;5112297;28;20038;-74
2022/06/20 02:52:29;;;;;;;;;;;13.10;99.90;;;;;;5110509;27;19924;-73
2022/06/20 02:54:54;;;;;;;;;;;13.10;99.90;;;;;;5033768;28;20056;-73
2022/06/20 02:57:30;;;;;;;;;;;13.10;99.90;;;;;;5105505;28;20019;-72
2022/06/20 02:59:57;;;;;;;;;;;13.10;99.90;;;;;;5074869;28;19948;-73
2022/06/20 03:02:25;;;;;;;;;;;13.10;99.90;;;;;;5086212;28;19970;-73
2022/06/20 03:04:51;;;;;;;;;;;13.10;99.90;;;;;;5108842;28;19928;-74
2022/06/20 03:07:21;;;;;;;;;;;13.10;99.90;;;;;;5112471;28;19928;-73
2022/06/20 03:09:49;;;;;;;;;;;13.10;99.90;;;;;;5111529;28;19932;-73
2022/06/20 03:12:15;;;;;;;;;;;13.20;99.90;;;;;;5111189;28;20053;-73
2022/06/20 03:14:50;;;;;;;;;;;13.20;99.90;;;;;;5110801;28;19924;-73
2022/06/20 03:17:17;;;;;;;;;;;13.30;99.90;;;;;;5111948;28;19923;-73
2022/06/20 03:19:46;;;;;;;;;;;13.30;99.90;;;;;;5107654;28;19976;-73
2022/06/20 03:22:14;;;;;;;;;;;13.30;99.90;;;;;;5065577;28;20020;-73
2022/06/20 03:24:41;;;;;;;;;;;13.30;99.90;;;;;;5101300;28;20610;-73
2022/06/20 03:27:06;;;;;;;;;;;13.30;99.90;;;;;;5110416;28;19932;-73
2022/06/20 03:29:34;;;;;;;;;;;13.40;99.90;;;;;;5104879;28;20390;-73
2022/06/20 03:31:59;;;;;;;;;;;13.40;99.90;;;;;;5089268;28;20006;-73
2022/06/20 03:34:25;;;;;;;;;;;13.30;99.90;;;;;;5099479;28;20014;-74
2022/06/20 03:36:51;;;;;;;;;;;13.30;99.90;;;;;;5105333;28;19924;-74
2022/06/20 03:39:19;;;;;;;;;;;13.30;99.90;;;;;;5097357;28;19923;-73
2022/06/20 03:41:45;;;;;;;;;;;13.20;99.90;;;;;;5064613;28;19929;-73
2022/06/20 03:44:19;;;;;;;;;;;13.20;99.90;;;;;;5103699;28;19930;-73
2022/06/20 03:46:48;;;;;;;;;;;13.10;99.90;;;;;;5029022;28;19930;-73
2022/06/20 03:49:35;;;;;;;;;;;13.00;99.90;;;;;;5010851;28;19926;-73
2022/06/20 03:52:04;;;;;;;;;;;13.00;99.90;;;;;;5008952;28;19937;-73
2022/06/20 03:54:35;;;;;;;;;;;12.90;99.90;;;;;;5010992;28;19930;-73
2022/06/20 03:57:01;;;;;;;;;;;12.90;99.90;;;;;;5012366;28;19965;-74
2022/06/20 03:59:39;;;;;;;;;;;12.90;99.90;;;;;;5009619;28;20030;-73
2022/06/20 04:02:08;;;;;;;;;;;12.90;99.90;;;;;;5010258;28;19933;-73
2022/06/20 04:04:40;;;;;;;;;;;13.00;99.90;;;;;;5009775;28;19932;-73
2022/06/20 04:07:21;;;;;;;;;;;12.90;99.90;;;;;;5008869;28;19987;-73
2022/06/20 04:12:35;;;;;;;;;;;12.90;99.90;;;;;;5061091;28;19928;-73
2022/06/20 04:15:06;;;;;;;;;;;12.90;99.90;;;;;;5067809;28;19937;-73
2022/06/20 04:20:27;;;;;;;;;;;12.90;99.90;;;;;;5110500;27;19924;-73
2022/06/20 04:22:53;;;;;;;;;;;12.90;99.90;;;;;;5092398;28;19933;-73
2022/06/20 04:25:26;;;;;;;;;;;12.90;99.90;;;;;;5057842;28;19928;-73
2022/06/20 04:28:12;;;;;;;;;;;12.90;99.90;;;;;;5108754;28;19928;-73
2022/06/20 04:30:47;;;;;;;;;;;13.00;99.90;;;;;;5107810;28;19923;-72
2022/06/20 04:33:32;;;;;;;;;;;13.00;99.90;;;;;;5047743;28;19984;-73
2022/06/20 04:36:03;;;;;;;;;;;13.10;99.90;;;;;;5020931;28;20038;-73
2022/06/20 04:38:31;;;;;;;;;;;13.10;99.90;;;;;;5066659;28;19930;-73
2022/06/20 04:41:08;;;;;;;;;;;13.20;99.90;;;;;;5016084;28;20016;-73
2022/06/20 04:43:46;;;;;;;;;;;13.20;99.90;;;;;;5039453;28;20014;-73
2022/06/20 04:46:14;;;;;;;;;;;13.30;99.90;;;;;;5108599;28;19967;-73
2022/06/20 04:48:40;;;;;;;;;;;13.40;99.90;;;;;;5108979;28;19923;-73
2022/06/20 04:51:07;;;;;;;;;;;13.40;99.90;;;;;;5106192;28;19972;-74
2022/06/20 04:53:34;;;;;;;;;;;13.50;99.90;;;;;;5108539;28;19939;-74
2022/06/20 04:56:01;;;;;;;;;;;13.60;99.90;;;;;;5104122;28;19971;-73
2022/06/20 04:58:29;;;;;;;;;;;13.60;99.90;;;;;;5107853;28;20021;-73
2022/06/20 05:00:56;;;;;;;;;;;13.70;99.90;;;;;;5103481;28;19935;-73
2022/06/20 05:03:24;;;;;;;;;;;13.70;99.90;;;;;;5106974;28;19977;-73
2022/06/20 05:05:52;;;;;;;;;;;13.70;99.90;;;;;;5101268;27;20550;-73
2022/06/20 05:08:22;;;;;;;;;;;13.70;99.90;;;;;;5104534;28;20378;-73
2022/06/20 05:10:49;;;;;;;;;;;13.70;99.90;;;;;;5100494;28;19929;-73
2022/06/20 05:13:21;;;;;;;;;;;13.70;99.90;;;;;;5106438;28;20424;-73
2022/06/20 05:15:48;;;;;;;;;;;13.70;99.90;;;;;;5036998;28;19934;-73
2022/06/20 05:18:27;;;;;;;;;;;13.70;99.90;;;;;;5107305;28;19982;-73
2022/06/20 05:20:55;;;;;;;;;;;13.70;99.90;;;;;;5105859;28;19982;-73
2022/06/20 05:23:29;;;;;;;;;;;13.80;99.90;;;;;;5109687;28;19923;-73
2022/06/20 05:25:56;;;;;;;;;;;13.80;99.90;;;;;;5077455;28;19926;-73
2022/06/20 05:28:23;;;;;;;;;;;13.80;99.90;;;;;;5110478;28;19924;-73
2022/06/20 05:30:49;;;;;;;;;;;13.80;99.90;;;;;;5108894;28;19924;-73
2022/06/20 05:33:14;;;;;;;;;;;13.90;99.90;;;;;;5035996;28;20345;-73
2022/06/20 05:35:51;;;;;;;;;;;13.90;99.90;;;;;;5073102;28;19928;-73
2022/06/20 05:38:23;;;;;;;;;;;14.00;99.90;;;;;;4995639;28;19925;-73
2022/06/20 05:40:51;;;;;;;;;;;14.10;99.90;;;;;;5008568;28;19959;-73
2022/06/20 05:43:19;;;;;;;;;;;14.20;99.90;;;;;;5009001;28;19986;-72
2022/06/20 05:45:46;;;;;;;;;;;14.20;99.90;;;;;;5068537;28;20411;-72
2022/06/20 05:48:12;;;;;;;;;;;14.20;99.90;;;;;;5025992;28;20054;-72
2022/06/20 05:50:50;;;;;;;;;;;14.30;99.90;;;;;;5094766;28;20003;-72
2022/06/20 05:53:24;;;;;;;;;;;14.30;99.90;;;;;;5106154;27;20305;-72
2022/06/20 05:55:50;;;;;;;;;;;14.30;99.90;;;;;;5103154;28;19927;-72
2022/06/20 05:58:36;;;;;;;;;;;14.20;99.90;;;;;;5106359;28;19924;-73
2022/06/20 06:01:03;;;;;;;;;;;14.20;99.90;;;;;;5106301;28;19924;-73
2022/06/20 06:03:40;;;;;;;;;;;14.20;99.90;;;;;;5089499;28;20008;-73
2022/06/20 06:06:10;;;;;;;;;;;14.20;99.90;;;;;;5013339;28;19932;-73
2022/06/20 06:08:59;;;;;;;;;;;14.10;99.90;;;;;;5006243;28;19925;-73
2022/06/20 06:11:36;;;;;;;;;;;14.10;99.90;;;;;;5099806;28;19971;-73
2022/06/20 06:14:04;;;;;;;;;;;14.20;99.90;;;;;;5053365;28;19925;-73
2022/06/20 06:16:48;;;;;;;;;;;14.30;99.90;;;;;;5007325;28;19969;-73
2022/06/20 06:19:14;;;;;;;;;;;14.40;99.90;;;;;;5008753;28;20268;-73
2022/06/20 06:21:40;;;;;;;;;;;14.50;99.90;;;;;;5074030;28;19930;-73
2022/06/20 06:24:08;;;;;;;;;;;14.70;99.90;;;;;;5074583;28;19930;-73
2022/06/20 06:26:34;;;;;;;;;;;14.70;99.90;;;;;;5007584;28;20394;-73
2022/06/20 06:29:00;;;;;;;;;;;14.90;99.90;;;;;;5009885;28;19980;-73
2022/06/20 06:31:27;;;;;;;;;;;15.00;99.90;;;;;;5008377;28;20016;-73
2022/06/20 06:33:55;;;;;;;;;;;15.30;99.90;;;;;;5011890;28;19954;-73
2022/06/20 06:36:51;;;;;;;;;;;15.60;99.90;;;;;;5006627;28;19933;-73
2022/06/20 06:39:27;;;;;;;;;;;15.70;99.90;;;;;;5103995;28;20385;-73
2022/06/20 06:41:55;;;;;;;;;;;15.70;99.90;;;;;;5025357;28;19937;-73
2022/06/20 06:44:32;;;;;;;;;;;15.60;99.90;;;;;;5075468;28;19965;-73
2022/06/20 06:46:59;;;;;;;;;;;15.50;99.90;;;;;;5008070;28;19933;-74
2022/06/20 06:49:27;;;;;;;;;;;15.40;99.90;;;;;;4989399;28;20380;-73
2022/06/20 06:52:01;;;;;;;;;;;15.40;99.90;;;;;;5009864;28;19954;-73
2022/06/20 06:54:32;;;;;;;;;;;15.30;99.90;;;;;;5008352;28;19929;-73
2022/06/20 06:57:01;;;;;;;;;;;15.20;99.90;;;;;;5011372;28;19925;-73
2022/06/20 06:59:32;;;;;;;;;;;15.20;99.90;;;;;;5009150;28;19936;-73
2022/06/20 07:02:00;;;;;;;;;;;15.10;99.90;;;;;;5013248;28;19926;-73
2022/06/20 07:04:28;;;;;;;;;;;15.10;99.90;;;;;;5011246;28;19951;-73
2022/06/20 07:06:57;;;;;;;;;;;15.30;99.90;;;;;;5015969;28;20421;-73
2022/06/20 07:09:28;;;;;;;;;;;15.50;99.90;;;;;;5072249;28;20508;-73
2022/06/20 07:11:59;;;;;;;;;;;15.70;99.90;;;;;;5011898;28;19929;-73
2022/06/20 07:14:25;;;;;;;;;;;15.80;99.90;;;;;;5018356;28;19975;-73
2022/06/20 07:16:53;;;;;;;;;;;15.70;99.90;;;;;;5014909;28;20387;-74
2022/06/20 07:19:20;;;;;;;;;;;15.60;99.90;;;;;;5021624;28;19930;-73
2022/06/20 07:21:45;;;;;;;;;;;15.60;99.90;;;;;;5016394;28;19933;-73
2022/06/20 07:24:17;;;;;;;;;;;15.50;99.90;;;;;;5025012;28;19929;-73
2022/06/20 07:26:50;;;;;;;;;;;15.50;99.90;;;;;;5005040;28;20016;-73
2022/06/20 07:29:37;;;;;;;;;;;15.50;99.90;;;;;;5021140;28;19923;-73
2022/06/20 07:32:25;;;;;;;;;;;15.60;99.90;;;;;;5018672;28;20421;-73
2022/06/20 07:34:53;;;;;;;;;;;15.70;99.90;;;;;;5042847;28;19976;-73
2022/06/20 07:37:21;;;;;;;;;;;16.00;99.90;;;;;;5110219;28;19930;-73
2022/06/20 07:39:51;;;;;;;;;;;16.10;99.90;;;;;;5110664;27;20369;-73
2022/06/20 07:42:16;;;;;;;;;;;16.20;99.90;;;;;;5109476;28;20656;-73
2022/06/20 07:44:48;;;;;;;;;;;16.20;99.90;;;;;;5029057;28;19925;-73
2022/06/20 07:47:15;;;;;;;;;;;16.20;99.90;;;;;;5028138;28;19928;-74
2022/06/20 07:49:45;;;;;;;;;;;16.10;99.90;;;;;;5009911;28;20324;-73
2022/06/20 07:52:12;;;;;;;;;;;16.10;99.90;;;;;;5051453;28;19926;-73
2022/06/20 07:54:41;;;;;;;;;;;16.20;99.90;;;;;;5007883;28;19932;-73
2022/06/20 07:57:12;;;;;;;;;;;16.30;99.90;;;;;;4992520;28;19963;-73
2022/06/20 07:59:44;;;;;;;;;;;16.40;99.90;;;;;;5077491;28;19930;-73
2022/06/20 08:02:15;;;;;;;;;;;16.50;99.90;;;;;;5008500;28;19926;-73
2022/06/20 08:04:43;;;;;;;;;;;16.50;99.90;;;;;;5008449;28;19980;-74
2022/06/20 08:07:26;;;;;;;;;;;16.60;99.90;;;;;;5010514;28;19925;-73
2022/06/20 08:10:00;;;;;;;;;;;16.70;99.90;;;;;;5080808;28;19931;-73
2022/06/20 08:12:33;;;;;;;;;;;16.70;99.90;;;;;;5049221;28;19947;-73
2022/06/20 08:15:05;;;;;;;;;;;16.80;99.90;;;;;;5010099;28;19925;-73
2022/06/20 08:17:31;;;;;;;;;;;17.00;99.90;;;;;;5008411;28;19926;-73
2022/06/20 08:19:57;;;;;;;;;;;17.10;99.90;;;;;;5007711;28;19925;-74
2022/06/20 08:22:47;;;;;;;;;;;17.20;99.90;;;;;;5059894;28;20353;-73
2022/06/20 08:25:16;;;;;;;;;;;17.20;99.90;;;;;;5080442;28;19931;-73
2022/06/20 08:27:43;;;;;;;;;;;17.20;99.90;;;;;;5076513;28;19926;-73
2022/06/20 08:30:12;;;;;;;;;;;17.30;99.90;;;;;;5077440;28;19924;-73
2022/06/20 08:32:44;;;;;;;;;;;17.30;99.90;;;;;;5008509;28;20307;-73
2022/06/20 08:35:21;;;;;;;;;;;17.30;99.90;;;;;;5012796;28;19972;-73
2022/06/20 08:37:50;;;;;;;;;;;17.30;99.90;;;;;;5010228;28;19925;-73
2022/06/20 08:40:18;;;;;;;;;;;17.20;99.90;;;;;;5016921;28;19936;-73
2022/06/20 08:42:53;;;;;;;;;;;17.20;99.90;;;;;;5011630;28;19925;-73
2022/06/20 08:45:33;;;;;;;;;;;17.20;99.90;;;;;;5014134;28;20372;-73
2022/06/20 08:48:20;;;;;;;;;;;17.10;99.90;;;;;;5016265;28;19980;-73
2022/06/20 08:51:04;;;;;;;;;;;17.10;99.90;;;;;;5002576;28;19937;-73
2022/06/20 08:53:29;;;;;;;;;;;17.20;99.90;;;;;;5010958;28;19925;-73
2022/06/20 08:55:57;;;;;;;;;;;17.30;99.90;;;;;;5066684;28;19924;-73
2022/06/20 08:58:25;;;;;;;;;;;17.30;99.90;;;;;;5110026;28;19963;-73
2022/06/20 09:00:57;;;;;;;;;;;17.10;99.90;;;;;;5111063;28;20615;-73
2022/06/20 09:03:33;;;;;;;;;;;17.00;99.90;;;;;;5008777;28;20732;-74
2022/06/20 09:05:58;;;;;;;;;;;17.00;99.90;;;;;;5009079;28;19926;-73
2022/06/20 09:08:34;;;;;;;;;;;17.20;99.90;;;;;;5007223;28;19978;-73
2022/06/20 09:11:19;;;;;;;;;;;17.30;99.40;;;;;;5088952;28;20014;-73
2022/06/20 09:13:56;;;;;;;;;;;17.40;99.20;;;;;;5108741;28;20042;-73
2022/06/20 09:16:33;;;;;;;;;;;17.30;98.30;;;;;;5107304;28;20461;-73
2022/06/20 09:19:11;;;;;;;;;;;17.50;99.00;;;;;;5107228;28;19923;-73
2022/06/20 09:21:48;;;;;;;;;;;17.80;98.20;;;;;;5109879;28;19924;-73
2022/06/20 09:24:40;;;;;;;;;;;18.00;98.30;;;;;;5108112;28;19924;-74
2022/06/20 09:27:08;;;;;;;;;;;18.10;97.40;;;;;;5052246;27;20005;-72
2022/06/20 09:29:51;;;;;;;;;;;18.30;96.80;;;;;;5072179;28;20399;-73
2022/06/20 09:32:42;;;;;;;;;;;18.30;96.70;;;;;;5098782;28;20010;-73
2022/06/20 09:35:17;;;;;;;;;;;18.30;97.30;;;;;;5092262;28;19923;-73
2022/06/20 09:38:01;;;;;;;;;;;18.40;97.70;;;;;;5108217;28;19967;-73
2022/06/20 09:40:37;;;;;;;;;;;18.50;97.60;;;;;;5082895;28;19982;-73
2022/06/20 09:43:21;;;;;;;;;;;18.40;97.70;;;;;;5007478;28;19929;-73
2022/06/20 09:45:56;;;;;;;;;;;18.50;97.90;;;;;;4996035;28;20490;-73
2022/06/20 09:48:27;;;;;;;4.32;1.30;;;18.60;97.30;;;;;;5007862;28;19925;-73
2022/06/20 09:51:20;;;;;;;4.60;1.10;;;18.80;97.40;;;;;;5061441;28;20405;-73
2022/06/20 09:54:24;;;;;;;3.43;0.90;;;19.30;96.90;;;;;;5030876;28;20039;-73
2022/06/20 09:56:52;;;;;;;;;;;19.60;96.40;;;;;;5011577;28;20293;-74
2022/06/20 09:59:38;;;;;;;;;;;19.50;94.00;;;;;;5007841;28;20012;-74
2022/06/20 10:02:12;;;;;;;;;;;19.50;93.90;;;;;;4997048;28;19921;-74
2022/06/20 10:04:38;;;;;;;;;;;19.70;94.00;;;;;;5007904;28;19921;-73
2022/06/20 10:07:15;;;;;;;;;;;19.60;94.10;;;;;;5058010;28;19965;-73
2022/06/20 10:09:46;;;;;;;;;;;19.30;93.90;;;;;;5105488;28;19949;-73
2022/06/20 10:12:31;;;;;;;;;;;19.00;94.10;;;;;;5108203;28;20387;-73
2022/06/20 10:15:02;;;;;;;;;;;19.00;95.40;;;;;;5107576;28;20407;-73
2022/06/20 10:17:44;;;;;;;4.95;0.85;;;19.40;95.10;;;;;;5105105;28;20998;-72
2022/06/20 10:20:25;;;;;;;;;;;19.70;94.70;;;;;;5106707;28;20043;-73
2022/06/20 10:23:16;;;;;;;4.78;1.00;;;19.70;93.40;;;;;;5103014;28;19953;-73
2022/06/20 10:25:44;;;;;;;;;;;20.00;93.10;;;;;;5050969;28;20087;-73
2022/06/20 10:28:13;;;;;;;;;;;20.30;92.60;;;;;;5107673;28;19919;-73
2022/06/20 10:30:43;;;;;;;;;;;20.50;92.40;;;;;;5105737;28;19920;-73
2022/06/20 10:33:27;;;;;;;;;;;20.60;92.30;;;;;;5108422;28;19920;-73
2022/06/20 10:35:56;;;;;;;;;;;20.50;91.60;;;;;;5107919;28;20030;-73
2022/06/20 10:38:25;;;;;;;;;;;20.40;91.60;;;;;;5034894;28;19980;-74
2022/06/20 10:40:50;;;;;;;;;;;20.40;92.30;;;;;;5006855;28;19975;-73
2022/06/20 10:43:35;;;;;;;;;;;20.40;91.20;;;;;;5006613;28;19960;-73
2022/06/20 10:46:03;;;;;;;;;;;20.40;91.50;;;;;;5060554;28;19919;-73
2022/06/20 10:48:29;;;;;;;;;;;20.60;90.80;;;;;;5019125;28;19925;-74
2022/06/20 10:51:07;;;;;;;;;;;20.90;90.90;;;;;;5007248;28;19925;-73
2022/06/20 10:53:32;;;;;;;;;;;21.20;90.10;;;;;;5035129;28;19940;-74
2022/06/20 10:56:16;;;;;;;;;;;21.10;88.60;;;;;;5109066;28;19919;-74
2022/06/20 10:58:50;;;;;;;;;;;20.80;88.50;;;;;;5034290;28;19959;-73
2022/06/20 11:01:18;;;;;;;;;;;20.70;90.10;;;;;;5012472;28;19961;-74
2022/06/20 11:04:01;;;;;;;4.70;0.93;;;20.80;89.80;;;;;;5008522;28;19982;-74
2022/06/20 11:06:45;;;;;;;;;;;21.00;90.10;;;;;;5014454;28;20041;-73
2022/06/20 11:09:30;;;;;;;;;;;21.10;90.00;;;;;;5014527;28;20303;-73
2022/06/20 11:12:04;;;;;;;;;;;21.50;89.80;;;;;;5012165;28;19928;-74
2022/06/20 11:14:32;;;;;;;;;;;22.00;87.30;;;;;;5012908;28;20012;-73
2022/06/20 11:17:04;;;;;;;;;;;22.10;84.50;;;;;;5011263;28;20008;-74
2022/06/20 11:19:35;;;;;;;;;;;22.00;86.50;;;;;;5013360;28;19925;-74
2022/06/20 11:22:01;;;;;;;;;;;21.80;85.20;;;;;;5011303;28;19922;-73
2022/06/20 11:24:26;;;;;;;;;;;21.40;84.90;;;;;;4996764;28;19925;-73
2022/06/20 11:27:03;;;;;;;;;;;21.40;87.90;;;;;;5012573;28;20020;-73
2022/06/20 11:29:34;;;;;;;;;;;21.50;82.90;;;;;;4999140;28;20442;-74
2022/06/20 11:32:03;;;;;;;;;;;21.70;82.90;;;;;;5012535;28;20490;-73
2022/06/20 11:34:34;;;;;;;;;;;21.60;84.00;;;;;;5010230;28;19921;-74
2022/06/20 11:37:19;;;;;;;;;;;21.60;83.70;;;;;;5015786;28;19948;-74
2022/06/20 11:39:59;;;;;;;;;;;21.70;83.30;;;;;;5013374;28;19978;-74
2022/06/20 11:42:27;;;;;;;;;;;21.50;79.10;;;;;;5000053;28;20371;-74
2022/06/20 11:45:19;;;;;;;;;;;21.50;80.00;;;;;;5017256;28;20311;-74
2022/06/20 11:47:47;;;;;;;;;;;21.70;79.60;;;;;;5013895;28;20279;-74
2022/06/20 11:50:23;;;;;;;;;;;21.80;81.40;;;;;;5018125;28;19926;-74
2022/06/20 11:52:54;;;;;;;;;;;21.80;81.40;;;;;;5014885;28;19922;-73
2022/06/20 11:55:27;;;;;;;6.43;0.75;;;22.10;81.70;;;;;;5016925;28;20000;-74
2022/06/20 11:57:57;;;;;;;;;;;22.20;80.30;;;;;;5080122;28;20863;-73
2022/06/20 12:00:43;;;;;;;;;;;22.00;81.10;;;;;;5063188;28;20238;-74
2022/06/20 12:03:35;;;;;;;;;;;22.10;80.50;;;;;;5071397;28;19921;-74
2022/06/20 12:06:06;;;;;;;;;;;22.10;81.10;;;;;;5108015;28;20014;-74
2022/06/20 12:08:41;;;;;;;;;;;21.90;82.00;;;;;;5111278;28;19945;-73
2022/06/20 12:11:16;;;;;;;3.45;1.08;;;21.70;82.40;;;;;;5018604;28;19931;-73
2022/06/20 12:14:20;;;;;;;;;;;21.80;83.80;;;;;;5079046;28;20042;-74
2022/06/20 12:17:04;;;;;;;;;;;22.00;81.60;;;;;;5058761;28;20011;-74
2022/06/20 12:25:30;;;;;;;;;;;22.90;79.40;;;;;;5109562;28;20425;-74
2022/06/20 12:27:56;;;;;;;;;;;23.00;76.00;;;;;;5101198;28;19920;-74
2022/06/20 12:30:22;;;;;;;;;;;23.30;79.10;;;;;;5020021;28;19970;-74
2022/06/20 12:32:50;;;;;;;;;;;23.50;77.80;;;;;;5075491;28;19920;-74
2022/06/20 12:35:18;;;;;;;;;;;23.70;75.40;;;;;;5009186;28;19930;-74
2022/06/20 12:37:56;;;;;;;;;;;23.60;75.70;;;;;;5009011;28;19925;-73
2022/06/20 12:40:27;;;;;;;;;;;23.50;75.10;;;;;;5009476;28;19921;-74
2022/06/20 12:43:00;;;;;;;;;;;23.30;76.60;;;;;;5011176;28;20283;-74
2022/06/20 12:45:36;;;;;;;;;;;23.10;75.80;;;;;;5008737;28;20383;-74
2022/06/20 12:48:02;;;;;;;;;;;22.70;74.20;;;;;;4997608;28;19944;-73
2022/06/20 12:50:46;;;;;;;;;;;22.20;76.00;;;;;;4992075;28;20387;-74
2022/06/20 12:53:18;;;;;;;;;;;21.80;77.90;;;;;;5008798;28;19921;-73
2022/06/20 12:55:43;;;;;;;;;;;21.70;79.00;;;;;;5009771;28;19925;-74
2022/06/20 12:58:27;;;;;;;;;;;21.50;79.90;;;;;;5008549;28;19922;-73
2022/06/20 13:01:04;;;;;;;;;;;21.20;80.10;;;;;;4995916;28;20328;-73
2022/06/20 13:03:39;;;;;;;;;;;20.80;82.40;;;;;;5023208;28;19928;-73
2022/06/20 13:06:23;;;;;;;;;;;20.60;84.20;;;;;;5009108;28;19975;-73
2022/06/20 13:08:49;;;;;;;;;;;20.60;85.00;;;;;;4996376;28;19925;-73
2022/06/20 13:11:23;;;;;;;3.67;0.80;;;20.80;86.00;;;;;;5010994;28;20260;-74
2022/06/20 13:13:51;;;;;;;;;;;21.20;84.00;;;;;;5014620;28;20049;-73
2022/06/20 13:16:32;;;;;;;;;;;21.20;83.00;;;;;;5011072;28;20378;-74
2022/06/20 13:19:13;;;;;;;;;;;21.10;82.90;;;;;;4998492;28;19922;-73
2022/06/20 13:22:16;;;;;;;;;;;20.80;82.10;;;;;;5009143;28;19928;-73
2022/06/20 13:25:00;;;;;;;;;;;20.50;83.70;;;;;;5087304;28;19920;-73
2022/06/20 13:27:31;;;;;;;;;;;20.70;86.70;;;;;;5006814;28;19921;-73
2022/06/20 13:30:21;;;;;;;2.00;0.73;;;21.30;87.10;;;;;;5010366;28;19929;-74
2022/06/20 13:32:56;;;;;;;3.97;0.70;;;21.80;81.00;;;;;;5008152;28;20473;-73
2022/06/20 13:35:24;;;;;;;4.25;0.70;;;22.10;80.40;;;;;;5008077;28;20044;-73
2022/06/20 13:37:53;;;;;;;;;;;22.00;77.70;;;;;;5008287;28;20125;-73
2022/06/20 13:40:27;;;;;;;;;;;21.80;79.00;;;;;;5009013;28;19928;-74
2022/06/20 13:42:53;;;;;;;;;;;21.60;80.50;;;;;;5031755;28;19928;-74
2022/06/20 13:45:23;;;;;;;;;;;21.60;80.00;;;;;;5110000;28;19920;-74
2022/06/20 13:48:01;;;;;;;;;;;22.00;81.30;;;;;;5105038;28;19972;-74
2022/06/20 13:50:45;;;;;;;;;;;22.30;78.80;;;;;;5102031;28;19989;-74
2022/06/20 13:53:23;;;;;;;;;;;22.30;77.90;;;;;;5104490;28;19920;-73
2022/06/20 13:56:18;;;;;;;2.65;0.70;;;22.50;77.00;;;;;;5082949;28;19925;-73
2022/06/20 13:58:54;;;;;;;3.70;0.50;;;22.60;76.20;;;;;;5079467;28;20051;-74
2022/06/20 14:01:22;;;;;;;2.80;0.80;;;22.70;77.40;;;;;;5107847;28;20059;-73
2022/06/20 14:03:49;;;;;;;5.03;0.88;;;22.90;77.10;;;;;;5033246;28;20043;-74
2022/06/20 14:06:18;;;;;;;3.17;0.80;;;23.00;75.10;;;;;;5108469;28;20047;-73
2022/06/20 14:09:04;;;;;;;4.22;0.70;;;22.90;75.40;;;;;;5050843;28;20080;-73
2022/06/20 14:11:47;;;;;;;3.03;0.68;;;22.80;74.20;;;;;;5108677;28;20051;-73
2022/06/20 14:14:33;;;;;;;3.23;0.70;;;23.10;77.00;;;;;;4996886;28;20457;-74
2022/06/20 14:17:04;;;;;;;4.13;0.90;;;23.60;76.50;;;;;;5007147;28;20046;-73
2022/06/20 14:19:43;;;;;;;4.30;1.00;;;24.00;75.80;;;;;;5006677;28;20042;-74
2022/06/20 14:22:33;;;;;;;3.35;0.73;;;24.30;76.00;;;;;;5006089;28;20413;-74
2022/06/20 14:25:03;;;;;;;4.95;1.40;;;23.90;72.50;;;;;;5007564;28;20444;-74
2022/06/20 14:27:31;;;;;;;4.82;1.00;;;23.60;73.40;;;;;;5005913;28;20458;-74
2022/06/20 14:30:03;;;;;;;6.07;1.42;;;23.10;75.10;;;;;;5008897;28;20409;-74
2022/06/20 14:33:24;;;;;;;7.63;1.27;;;22.60;75.30;;;;;;5007111;28;20417;-73
2022/06/20 14:35:57;;;;;;;5.93;1.20;;;22.30;76.40;;;;;;5008033;28;20474;-73
2022/06/20 14:38:25;;;;;;;3.38;0.98;;;22.50;77.10;;;;;;5002544;28;20876;-73
2022/06/20 14:44:00;;;;;;;6.10;1.17;;;22.90;75.80;;;;;;5012812;28;20836;-73
2022/06/20 14:46:55;;;;;;;5.03;1.10;;;22.50;75.30;;;;;;5001436;28;20436;-73
2022/06/20 14:49:45;;;;;;;5.90;1.53;;;22.00;76.70;;;;;;5016819;28;20417;-73
2022/06/20 14:52:20;;;;;;;5.72;1.30;;;21.40;78.30;;;;;;5021170;28;20482;-74
2022/06/20 14:55:01;;;;;;;7.60;1.70;;;21.30;79.70;;;;;;5014920;28;20466;-75
2022/06/20 14:57:27;;;;;;;5.70;1.25;;;21.40;79.50;;;;;;5023404;28;20987;-74